Time;durP1;ratioP1;P1;durP2;ratioP2;P2;SDS_P1;SDS_P2;PMS_P1;PMS_P2;Temp;Humidity;BMP_temperature;BMP_pressure;BME280_temperature;BME280_humidity;BME280_pressure;Samples;Min_cycle;Max_cycle;Signal;HPM_P1;HPM_P2
2022/09/09 00:02:00;;;;;;;15.23;6.82;;;;;;;17.32;100.00;92321.56;5016403;28;20052;-76
2022/09/09 00:04:38;;;;;;;10.85;6.20;;;;;;;17.30;100.00;92334.34;5033322;28;20731;-76
2022/09/09 00:07:20;;;;;;;13.65;7.57;;;;;;;17.33;100.00;92334.44;5031185;28;20041;-75
2022/09/09 00:10:16;;;;;;;11.85;7.20;;;;;;;17.30;100.00;92332.47;5014980;28;20041;-76
2022/09/09 00:12:48;;;;;;;15.30;7.82;;;;;;;17.28;100.00;92338.06;5014989;28;20053;-76
2022/09/09 00:15:20;;;;;;;18.58;9.35;;;;;;;17.37;100.00;92334.56;5014597;28;20191;-76
2022/09/09 00:17:49;;;;;;;14.65;8.63;;;;;;;17.43;100.00;92333.25;5022470;28;20398;-76
2022/09/09 00:20:20;;;;;;;19.48;9.95;;;;;;;17.35;100.00;92332.22;5014861;28;20025;-75
2022/09/09 00:23:02;;;;;;;17.58;10.07;;;;;;;17.35;100.00;92318.25;5034016;28;20038;-75
2022/09/09 00:25:49;;;;;;;16.92;9.88;;;;;;;17.26;100.00;92316.47;5014769;28;20070;-75
2022/09/09 00:28:22;;;;;;;17.13;10.32;;;;;;;17.33;100.00;92320.44;5014179;28;20123;-75
2022/09/09 00:30:48;;;;;;;17.08;11.52;;;;;;;17.25;100.00;92309.66;5014481;28;20041;-75
2022/09/09 00:33:18;;;;;;;18.05;11.07;;;;;;;17.29;100.00;92301.81;5015476;28;20120;-75
2022/09/09 00:36:00;;;;;;;21.25;11.38;;;;;;;17.25;100.00;92290.38;4998225;28;20513;-75
2022/09/09 00:38:37;;;;;;;17.10;11.02;;;;;;;17.17;100.00;92297.31;4997865;28;20457;-75
2022/09/09 00:41:18;;;;;;;12.05;6.25;;;;;;;17.05;100.00;92294.66;5032534;28;20429;-75
2022/09/09 00:43:50;;;;;;;11.35;6.70;;;;;;;16.94;100.00;92301.50;4996199;28;20030;-75
2022/09/09 00:46:32;;;;;;;15.80;7.88;;;;;;;16.89;100.00;92301.69;5012517;28;20030;-76
2022/09/09 00:49:21;;;;;;;15.40;8.18;;;;;;;16.88;100.00;92300.91;5013539;28;20029;-76
2022/09/09 00:52:05;;;;;;;23.10;10.60;;;;;;;16.89;100.00;92291.13;5020243;28;20064;-76
2022/09/09 00:54:40;;;;;;;21.38;11.10;;;;;;;16.89;100.00;92283.19;5015132;28;20038;-76
2022/09/09 00:57:35;;;;;;;16.55;10.00;;;;;;;16.91;100.00;92279.13;5032107;28;20053;-75
2022/09/09 01:00:31;;;;;;;19.35;11.98;;;;;;;16.98;100.00;92274.06;5000519;28;20570;-76
2022/09/09 01:03:06;;;;;;;18.63;10.82;;;;;;;17.03;100.00;92276.47;5010829;28;20522;-75
2022/09/09 01:05:39;;;;;;;14.90;7.97;;;;;;;17.01;100.00;92273.38;5022060;28;20034;-76
2022/09/09 01:08:20;;;;;;;12.48;7.07;;;;;;;16.91;100.00;92268.56;5014029;28;20036;-76
2022/09/09 01:10:53;;;;;;;13.73;7.57;;;;;;;16.86;100.00;92263.47;4993966;28;20043;-76
2022/09/09 01:13:30;;;;;;;14.15;7.60;;;;;;;16.87;100.00;92266.91;5011108;28;20033;-76
2022/09/09 01:16:00;;;;;;;15.52;7.53;;;;;;;16.87;100.00;92272.19;5011527;28;20038;-75
2022/09/09 01:18:30;;;;;;;12.63;7.38;;;;;;;16.83;100.00;92272.84;5002615;28;20034;-76
2022/09/09 01:21:21;;;;;;;12.15;7.20;;;;;;;16.81;100.00;92267.09;5001019;28;20461;-76
2022/09/09 01:24:17;;;;;;;13.73;7.40;;;;;;;16.77;100.00;92257.50;5009806;28;20034;-75
2022/09/09 01:27:08;;;;;;;13.60;7.45;;;;;;;16.74;100.00;92269.50;5017528;28;20049;-76
2022/09/09 01:29:35;;;;;;;17.15;7.55;;;;;;;16.75;100.00;92271.06;5007839;28;20030;-76
2022/09/09 01:32:23;;;;;;;16.25;8.50;;;;;;;16.74;100.00;92272.13;5023848;28;20463;-76
2022/09/09 01:34:50;;;;;;;14.10;9.18;;;;;;;16.75;100.00;92278.19;5009789;28;20129;-76
2022/09/09 01:37:15;;;;;;;14.82;8.95;;;;;;;16.75;100.00;92286.91;4993700;28;20396;-76
2022/09/09 01:39:44;;;;;;;14.48;7.57;;;;;;;16.77;100.00;92284.69;5011193;28;20044;-76
2022/09/09 01:42:16;;;;;;;16.77;8.32;;;;;;;16.78;100.00;92288.88;4993896;28;20034;-76
2022/09/09 01:44:42;;;;;;;12.88;6.00;;;;;;;16.83;100.00;92290.56;4993018;28;20057;-75
2022/09/09 01:47:07;;;;;;;11.35;5.88;;;;;;;16.70;100.00;92288.97;4995240;28;20026;-76
2022/09/09 01:49:37;;;;;;;11.18;6.10;;;;;;;16.65;100.00;92296.00;5003315;28;20531;-75
2022/09/09 01:52:10;;;;;;;13.52;6.30;;;;;;;16.72;100.00;92290.19;5011005;28;20077;-75
2022/09/09 01:54:38;;;;;;;13.52;5.57;;;;;;;16.67;100.00;92290.41;5009540;28;20046;-76
2022/09/09 01:57:20;;;;;;;11.75;5.60;;;;;;;16.60;100.00;92269.81;5009731;28;20025;-76
2022/09/09 02:00:10;;;;;;;12.48;6.47;;;;;;;16.57;100.00;92275.75;5005104;28;20026;-76
2022/09/09 02:03:25;;;;;;;12.63;5.63;;;;;;;16.56;100.00;92268.16;5011241;28;20045;-76
2022/09/09 02:06:14;;;;;;;9.80;6.38;;;;;;;16.58;100.00;92263.31;4992802;28;20065;-75
2022/09/09 02:08:45;;;;;;;10.93;6.32;;;;;;;16.55;100.00;92262.09;5003836;28;20560;-76
2022/09/09 02:11:22;;;;;;;14.67;6.70;;;;;;;16.54;100.00;92271.13;4994751;28;20129;-76
2022/09/09 02:14:06;;;;;;;10.80;5.50;;;;;;;16.72;100.00;92255.84;5012443;28;20291;-75
2022/09/09 02:16:42;;;;;;;10.38;4.75;;;;;;;16.81;100.00;92245.19;5030451;28;20402;-75
2022/09/09 02:19:25;;;;;;;9.50;4.60;;;;;;;16.80;100.00;92254.22;5001410;28;20515;-75
2022/09/09 02:22:22;;;;;;;12.00;4.70;;;;;;;16.58;100.00;92244.81;4982135;28;20042;-76
2022/09/09 02:24:53;;;;;;;8.43;4.55;;;;;;;16.43;100.00;92244.34;4973317;28;20031;-76
2022/09/09 02:27:23;;;;;;;9.98;4.03;;;;;;;16.40;100.00;92249.53;4989621;28;20045;-76
2022/09/09 02:29:51;;;;;;;8.10;4.82;;;;;;;16.37;100.00;92266.00;4984686;28;20046;-76
2022/09/09 02:32:24;;;;;;;11.10;4.00;;;;;;;16.36;100.00;92270.53;5009381;28;20042;-75
2022/09/09 02:35:00;;;;;;;6.88;3.80;;;;;;;16.35;100.00;92262.94;4994474;28;20150;-76
2022/09/09 02:37:35;;;;;;;8.32;3.80;;;;;;;16.35;100.00;92242.59;5013282;28;20029;-76
2022/09/09 02:40:06;;;;;;;7.82;3.67;;;;;;;16.37;100.00;92244.88;4998780;28;20543;-76
2022/09/09 02:42:38;;;;;;;7.40;3.20;;;;;;;16.35;100.00;92239.94;5006896;28;20093;-75
2022/09/09 02:45:05;;;;;;;8.38;3.50;;;;;;;16.36;100.00;92235.41;5011995;28;20037;-76
2022/09/09 02:47:36;;;;;;;12.70;6.03;;;;;;;16.38;100.00;92244.56;4996142;28;20037;-76
2022/09/09 02:50:12;;;;;;;10.40;6.53;;;;;;;16.37;100.00;92250.94;4998309;28;20172;-75
2022/09/09 02:52:44;;;;;;;11.82;7.05;;;;;;;16.39;100.00;92259.31;5012647;28;20407;-75
2022/09/09 02:55:25;;;;;;;13.35;7.70;;;;;;;16.37;100.00;92266.00;4994980;28;20038;-75
2022/09/09 02:57:55;;;;;;;18.63;7.22;;;;;;;16.28;100.00;92266.13;4996182;28;20029;-75
2022/09/09 03:00:28;;;;;;;438.95;13.93;;;;;;;16.25;100.00;92261.47;5012781;28;20069;-75
2022/09/09 03:02:58;;;;;;;10.38;6.05;;;;;;;16.04;100.00;92269.44;5013861;28;20022;-76
2022/09/09 03:05:26;;;;;;;7.68;4.53;;;;;;;15.99;100.00;92286.25;5013065;28;20124;-76
2022/09/09 03:07:52;;;;;;;6.47;4.30;;;;;;;15.96;100.00;92273.72;4992744;28;20518;-76
2022/09/09 03:10:19;;;;;;;7.45;5.03;;;;;;;15.87;100.00;92259.03;4995764;28;20235;-76
2022/09/09 03:12:44;;;;;;;9.40;5.13;;;;;;;15.88;100.00;92261.34;4990174;28;20042;-76
2022/09/09 03:15:10;;;;;;;8.80;5.68;;;;;;;15.83;100.00;92258.91;5027601;28;20192;-76
2022/09/09 03:17:38;;;;;;;7.18;4.63;;;;;;;15.78;100.00;92261.75;5032584;28;20040;-76
2022/09/09 03:20:04;;;;;;;6.25;4.10;;;;;;;15.74;100.00;92253.72;4995582;28;20132;-76
2022/09/09 03:22:30;;;;;;;6.47;3.00;;;;;;;15.65;100.00;92247.72;4990343;28;20034;-76
2022/09/09 03:24:58;;;;;;;5.32;2.80;;;;;;;15.53;100.00;92256.31;4977470;28;20049;-76
2022/09/09 03:27:23;;;;;;;6.30;2.88;;;;;;;15.45;100.00;92249.25;5029063;28;20034;-76
2022/09/09 03:29:51;;;;;;;6.43;3.75;;;;;;;15.35;100.00;92249.63;5012979;28;20044;-76
2022/09/09 03:32:22;;;;;;;5.93;3.72;;;;;;;15.25;100.00;92248.13;4997141;28;20500;-75
2022/09/09 03:34:51;;;;;;;7.55;3.80;;;;;;;15.04;100.00;92245.47;4976576;28;20034;-76
2022/09/09 03:37:18;;;;;;;7.15;3.70;;;;;;;15.00;100.00;92257.75;4992696;28;20528;-76
2022/09/09 03:39:44;;;;;;;7.68;3.65;;;;;;;14.96;100.00;92259.47;4992753;28;20038;-76
2022/09/09 03:42:14;;;;;;;8.50;4.13;;;;;;;14.90;100.00;92264.13;4992424;28;20377;-76
2022/09/09 03:44:41;;;;;;;6.57;3.40;;;;;;;14.89;100.00;92265.25;4994971;28;20343;-76
2022/09/09 03:47:07;;;;;;;6.00;2.72;;;;;;;14.84;100.00;92262.00;5010630;28;20069;-76
2022/09/09 03:49:33;;;;;;;9.02;3.00;;;;;;;14.83;100.00;92255.19;4996022;28;20038;-76
2022/09/09 03:52:00;;;;;;;7.25;3.40;;;;;;;14.83;100.00;92260.47;4978864;28;20381;-76
2022/09/09 03:54:27;;;;;;;5.82;3.63;;;;;;;14.84;100.00;92268.06;5000236;28;20048;-76
2022/09/09 03:56:53;;;;;;;6.88;3.50;;;;;;;14.85;100.00;92264.31;5004155;28;20439;-76
2022/09/09 03:59:21;;;;;;;8.57;3.97;;;;;;;14.84;100.00;92262.78;4995610;28;20037;-76
2022/09/09 04:01:47;;;;;;;6.50;4.22;;;;;;;14.84;100.00;92256.72;4995534;28;20030;-76
2022/09/09 04:04:13;;;;;;;7.07;3.85;;;;;;;14.85;100.00;92253.00;4995374;28;20092;-76
2022/09/09 04:06:39;;;;;;;5.70;3.40;;;;;;;14.85;100.00;92253.00;4998922;28;20110;-76
2022/09/09 04:09:04;;;;;;;7.28;3.55;;;;;;;14.82;100.00;92246.53;5011608;28;20038;-76
2022/09/09 04:11:31;;;;;;;5.20;3.53;;;;;;;14.84;100.00;92251.47;4990250;28;20136;-76
2022/09/09 04:13:58;;;;;;;7.43;3.33;;;;;;;14.82;100.00;92253.66;5015621;28;20038;-76
2022/09/09 04:16:24;;;;;;;9.70;3.60;;;;;;;14.76;100.00;92253.81;4999907;28;20052;-76
2022/09/09 04:18:50;;;;;;;11.57;4.40;;;;;;;14.73;100.00;92257.09;4974213;28;20039;-76
2022/09/09 04:21:17;;;;;;;10.48;4.05;;;;;;;14.70;100.00;92260.38;5027530;28;20411;-76
2022/09/09 04:23:43;;;;;;;6.57;4.07;;;;;;;14.67;100.00;92266.25;5029331;28;20532;-76
2022/09/09 04:26:09;;;;;;;7.25;4.63;;;;;;;14.65;100.00;92262.41;5021561;28;20053;-76
2022/09/09 04:28:37;;;;;;;8.60;4.28;;;;;;;14.66;100.00;92264.72;5014965;28;20037;-76
2022/09/09 04:31:17;;;;;;;11.75;5.05;;;;;;;14.64;100.00;92260.88;5006336;28;20042;-76
2022/09/09 04:33:44;;;;;;;6.05;4.50;;;;;;;14.64;100.00;92260.88;4994251;28;20113;-76
2022/09/09 04:36:10;;;;;;;7.15;4.57;;;;;;;14.64;100.00;92260.88;4980689;28;20116;-76
2022/09/09 04:38:36;;;;;;;7.28;4.13;;;;;;;14.65;100.00;92255.25;4998594;28;20042;-76
2022/09/09 04:41:02;;;;;;;6.53;3.40;;;;;;;14.63;100.00;92254.81;5007473;28;20137;-76
2022/09/09 04:43:28;;;;;;;6.20;3.15;;;;;;;14.63;100.00;92254.81;4995123;28;20109;-76
2022/09/09 04:45:54;;;;;;;5.57;2.70;;;;;;;14.65;100.00;92249.22;4978649;28;20046;-77
2022/09/09 04:48:24;;;;;;;4.38;2.58;;;;;;;14.63;100.00;92254.81;5007295;28;20044;-76
2022/09/09 04:51:01;;;;;;;4.45;2.80;;;;;;;14.61;100.00;92253.56;5042078;28;20041;-77
2022/09/09 04:53:27;;;;;;;6.35;3.15;;;;;;;14.59;100.00;92248.66;4997664;28;20061;-77
2022/09/09 04:56:07;;;;;;;5.07;2.92;;;;;;;14.53;100.00;92249.88;4996904;28;20036;-77
2022/09/09 04:58:37;;;;;;;5.90;3.05;;;;;;;14.53;100.00;92257.78;5002313;28;20065;-76
2022/09/09 05:01:10;;;;;;;5.60;3.10;;;;;;;14.51;100.00;92259.94;5036000;28;20033;-76
2022/09/09 05:03:37;;;;;;;6.30;2.33;;;;;;;14.48;100.00;92261.34;5027431;28;20072;-77
2022/09/09 05:06:08;;;;;;;7.50;2.20;;;;;;;14.42;100.00;92257.34;4992324;28;20069;-77
2022/09/09 05:08:39;;;;;;;4.30;2.10;;;;;;;14.36;100.00;92255.94;5000748;28;20055;-77
2022/09/09 05:11:20;;;;;;;4.65;1.92;;;;;;;14.32;100.00;92265.56;5011093;28;20403;-77
2022/09/09 05:13:46;;;;;;;4.63;2.25;;;;;;;14.28;100.00;92265.44;4992364;28;20052;-77
2022/09/09 05:16:13;;;;;;;7.82;2.67;;;;;;;14.27;100.00;92278.91;5013865;28;20539;-77
2022/09/09 05:18:40;;;;;;;3.95;2.10;;;;;;;14.30;100.00;92281.69;5025841;28;20038;-77
2022/09/09 05:21:07;;;;;;;4.60;2.20;;;;;;;14.32;100.00;92276.88;4999972;28;20561;-76
2022/09/09 05:23:33;;;;;;;3.80;2.00;;;;;;;14.26;100.00;92277.38;5014547;28;20057;-77
2022/09/09 05:26:00;;;;;;;3.88;2.30;;;;;;;14.25;100.00;92288.97;5014563;28;20045;-76
2022/09/09 05:28:26;;;;;;;3.95;2.15;;;;;;;14.23;100.00;92288.50;5029716;28;20041;-77
2022/09/09 05:31:00;;;;;;;4.60;2.40;;;;;;;14.21;100.00;92294.09;5013330;28;20091;-76
2022/09/09 05:33:28;;;;;;;3.30;1.83;;;;;;;14.25;100.00;92294.22;5010888;28;20042;-76
2022/09/09 05:36:06;;;;;;;6.22;2.33;;;;;;;14.13;100.00;92297.50;5013064;28;20064;-77
2022/09/09 05:38:32;;;;;;;5.25;2.10;;;;;;;14.13;100.00;92297.50;5008639;28;20042;-77
2022/09/09 05:41:00;;;;;;;4.45;2.33;;;;;;;14.14;100.00;92299.06;5008945;28;20545;-76
2022/09/09 05:43:27;;;;;;;4.32;2.10;;;;;;;14.14;100.00;92305.09;5011435;28;20566;-77
2022/09/09 05:46:04;;;;;;;4.30;2.20;;;;;;;14.20;100.00;92307.56;4993577;28;20057;-77
2022/09/09 05:48:35;;;;;;;5.35;2.33;;;;;;;14.16;100.00;92307.41;4991588;28;20037;-77
2022/09/09 05:51:02;;;;;;;3.25;2.08;;;;;;;14.20;100.00;92313.59;4988935;28;20901;-78
2022/09/09 05:53:36;;;;;;;6.40;2.30;;;;;;;14.18;100.00;92304.47;4977385;28;20395;-77
2022/09/09 05:56:04;;;;;;;3.92;2.30;;;;;;;14.21;100.00;92306.47;4985348;28;20038;-78
2022/09/09 05:58:33;;;;;;;4.68;2.53;;;;;;;14.23;100.00;92313.00;4995912;28;20439;-78
2022/09/09 06:01:08;;;;;;;4.13;2.10;;;;;;;14.27;100.00;92311.25;4996560;28;20022;-78
2022/09/09 06:03:38;;;;;;;4.32;2.28;;;;;;;14.34;100.00;92313.41;5012390;28;20030;-77
2022/09/09 06:06:06;;;;;;;3.80;2.20;;;;;;;14.40;100.00;92308.78;4994661;28;20392;-78
2022/09/09 06:08:33;;;;;;;12.93;2.10;;;;;;;14.43;100.00;92316.03;5000004;28;20483;-77
2022/09/09 06:11:22;;;;;;;3.28;1.90;;;;;;;14.48;100.00;92315.88;5014156;28;20041;-78
2022/09/09 06:13:53;;;;;;;4.65;2.15;;;;;;;14.53;100.00;92318.34;5003684;28;20128;-77
2022/09/09 06:16:23;;;;;;;4.80;2.38;;;;;;;14.57;100.00;92327.19;5008898;28;20041;-77
2022/09/09 06:18:50;;;;;;;3.47;1.90;;;;;;;14.62;100.00;92326.25;5019678;28;20038;-77
2022/09/09 06:21:19;;;;;;;3.83;2.15;;;;;;;14.71;100.00;92325.13;5003220;28;20037;-77
2022/09/09 06:23:46;;;;;;;5.32;2.20;;;;;;;14.81;100.00;92321.38;5009214;28;20025;-77
2022/09/09 06:26:17;;;;;;;4.47;1.85;;;;;;;14.87;100.00;92320.13;5014497;28;20037;-77
2022/09/09 06:28:46;;;;;;;3.20;1.85;;;;;;;15.08;99.35;92322.81;5002176;28;20561;-77
2022/09/09 06:31:13;;;;;;;2.97;1.83;;;;;;;15.36;94.44;92322.38;5008486;28;20032;-76
2022/09/09 06:33:41;;;;;;;4.22;1.88;;;;;;;15.18;97.51;92324.34;4974584;28;20038;-77
2022/09/09 06:36:13;;;;;;;5.90;1.80;;;;;;;15.17;100.00;92318.28;4999501;28;20037;-77
2022/09/09 06:38:39;;;;;;;4.05;2.13;;;;;;;15.28;100.00;92318.69;5008868;28;20038;-77
2022/09/09 06:41:05;;;;;;;3.10;1.75;;;;;;;15.61;99.38;92323.31;4981819;28;20429;-76
2022/09/09 06:43:32;;;;;;;9.48;2.10;;;;;;;16.00;96.39;92324.75;5004924;28;20034;-77
2022/09/09 06:46:03;;;;;;;3.92;1.65;;;;;;;16.16;96.01;92329.44;5008696;28;20480;-77
2022/09/09 06:48:28;;;;;;;4.28;1.95;;;;;;;16.70;95.58;92331.25;5001142;28;20033;-75
2022/09/09 06:51:14;;;;;;;4.07;1.77;;;;;;;17.71;90.83;92325.38;5002257;28;20022;-76
2022/09/09 06:53:41;;;;;;;4.78;1.80;;;;;;;17.45;88.89;92328.38;5006859;28;20081;-76
2022/09/09 06:56:10;;;;;;;3.75;1.95;;;;;;;17.28;89.90;92322.22;5009838;28;20072;-76
2022/09/09 06:58:42;;;;;;;4.47;1.95;;;;;;;17.27;90.88;92322.56;4993191;28;20038;-77
2022/09/09 07:01:14;;;;;;;5.38;1.70;;;;;;;17.14;91.78;92328.94;5009010;28;20034;-76
2022/09/09 07:03:42;;;;;;;4.63;1.73;;;;;;;17.14;93.36;92319.13;4976968;28;20049;-76
2022/09/09 07:06:14;;;;;;;6.85;1.90;;;;;;;17.17;95.67;92318.47;5000478;28;20073;-76
2022/09/09 07:08:41;;;;;;;4.93;2.05;;;;;;;17.25;96.98;92320.22;4998421;28;20034;-76
2022/09/09 07:11:08;;;;;;;6.38;1.80;;;;;;;17.27;98.80;92318.03;4990602;28;20414;-76
2022/09/09 07:13:36;;;;;;;5.43;1.95;;;;;;;17.67;100.00;92325.28;4995726;28;20501;-77
2022/09/09 07:16:11;;;;;;;2.95;1.80;;;;;;;18.24;91.56;92320.06;4999579;28;20454;-77
2022/09/09 07:18:37;;;;;;;4.45;1.90;;;;;;;17.65;94.62;92330.13;5011456;28;20488;-77
2022/09/09 07:21:03;;;;;;;3.95;2.00;;;;;;;17.05;96.26;92321.09;5008494;28;20125;-77
2022/09/09 07:23:30;;;;;;;5.60;1.98;;;;;;;16.93;98.45;92331.66;4997809;28;20040;-77
2022/09/09 07:25:59;;;;;;;4.05;2.10;;;;;;;17.38;100.00;92328.16;5031418;28;20041;-77
2022/09/09 07:28:26;;;;;;;3.80;1.70;;;;;;;17.51;100.00;92321.75;5004829;28;20097;-77
2022/09/09 07:31:04;;;;;;;5.10;1.70;;;;;;;17.45;93.82;92321.22;4994712;28;20165;-77
2022/09/09 07:33:33;;;;;;;5.03;2.20;;;;;;;17.24;93.22;92326.59;4991901;28;20065;-77
2022/09/09 07:36:12;;;;;;;4.68;1.90;;;;;;;17.13;89.41;92333.44;5013333;28;20042;-76
2022/09/09 07:38:45;;;;;;;6.38;2.03;;;;;;;16.98;90.67;92334.09;4992768;28;20125;-77
2022/09/09 07:41:21;;;;;;;4.43;2.03;;;;;;;17.03;88.76;92333.88;4996989;28;20034;-77
2022/09/09 07:43:49;;;;;;;6.20;2.13;;;;;;;16.97;90.82;92335.19;4996517;28;20513;-77
2022/09/09 07:46:18;;;;;;;9.45;2.10;;;;;;;17.06;92.18;92336.63;4995683;28;20030;-77
2022/09/09 07:48:51;;;;;;;10.55;2.25;;;;;;;17.56;91.12;92334.78;4986149;28;20044;-77
2022/09/09 07:51:33;;;;;;;8.82;2.20;;;;;;;18.06;91.73;92330.94;5012067;28;20034;-77
2022/09/09 07:54:02;;;;;;;3.22;1.98;;;;;;;18.37;88.76;92332.16;4994349;28;20091;-77
2022/09/09 07:56:31;;;;;;;6.72;1.95;;;;;;;18.68;84.06;92331.44;4996975;28;20073;-77
2022/09/09 07:58:58;;;;;;;4.82;1.98;;;;;;;18.57;81.93;92332.28;4996895;28;20134;-77
2022/09/09 08:01:33;;;;;;;5.05;1.92;;;;;;;18.88;82.39;92332.34;4981588;28;20026;-77
2022/09/09 08:04:03;;;;;;;3.30;2.10;;;;;;;18.66;84.37;92335.56;4993648;28;20393;-78
2022/09/09 08:06:33;;;;;;;4.32;1.80;;;;;;;19.02;85.78;92331.16;4993190;28;20149;-76
2022/09/09 08:08:59;;;;;;;4.05;1.95;;;;;;;19.40;80.50;92337.75;4998564;28;20021;-76
2022/09/09 08:11:28;;;;;;;4.45;1.83;;;;;;;19.20;80.40;92332.38;5001719;28;20054;-77
2022/09/09 08:13:55;;;;;;;4.32;1.88;;;;;;;19.02;81.54;92333.81;5011806;28;20092;-77
2022/09/09 08:16:27;;;;;;;5.13;1.83;;;;;;;19.14;78.90;92339.06;5027945;28;20503;-77
2022/09/09 08:18:56;;;;;;;3.30;1.90;;;;;;;19.05;79.98;92335.78;5024790;28;20054;-77
2022/09/09 08:21:26;;;;;;;3.67;2.00;;;;;;;19.34;81.85;92331.94;5013438;28;20029;-77
2022/09/09 08:23:53;;;;;;;3.95;2.00;;;;;;;19.54;78.79;92341.53;5029485;28;20069;-77
2022/09/09 08:26:23;;;;;;;6.40;2.05;;;;;;;19.65;79.49;92344.38;5009481;28;20407;-76
2022/09/09 08:28:53;;;;;;;5.88;2.00;;;;;;;19.71;76.96;92337.72;4999328;28;20689;-76
2022/09/09 08:31:23;;;;;;;4.47;2.07;;;;;;;19.51;78.18;92336.88;5004071;28;20128;-77
2022/09/09 08:33:49;;;;;;;5.50;2.10;;;;;;;19.53;79.23;92339.19;5026096;28;20379;-76
2022/09/09 08:36:18;;;;;;;4.10;1.90;;;;;;;19.54;78.10;92344.19;5027970;28;20583;-77
2022/09/09 08:38:46;;;;;;;4.90;1.80;;;;;;;19.55;80.88;92347.59;5028037;28;20030;-77
2022/09/09 08:41:30;;;;;;;4.15;1.98;;;;;;;19.55;80.68;92342.28;5013593;28;20043;-77
2022/09/09 08:44:30;;;;;;;8.95;2.40;;;;;;;19.63;81.24;92345.84;5027750;28;20069;-77
2022/09/09 08:47:19;;;;;;;4.22;2.20;;;;;;;19.56;79.43;92344.56;5011330;28;20029;-77
2022/09/09 08:50:10;;;;;;;3.88;2.00;;;;;;;19.50;80.74;92345.22;4994905;28;20037;-77
2022/09/09 08:52:59;;;;;;;5.07;2.00;;;;;;;19.57;76.98;92342.72;5026734;28;20034;-77
2022/09/09 08:55:30;;;;;;;7.95;1.85;;;;;;;19.76;78.61;92340.13;5017626;28;20107;-76
2022/09/09 08:58:01;;;;;;;3.63;1.80;;;;;;;19.76;77.44;92347.31;5029313;28;20045;-77
2022/09/09 09:00:40;;;;;;;4.65;2.00;;;;;;;19.68;77.84;92335.75;5011238;28;20038;-77
2022/09/09 09:03:27;;;;;;;4.63;2.00;;;;;;;20.02;77.06;92349.41;5010835;28;20033;-77
2022/09/09 09:06:36;;;;;;;6.22;2.08;;;;;;;20.16;76.49;92349.69;5013740;28;20477;-78
2022/09/09 09:09:20;;;;;;;5.22;1.80;;;;;;;20.17;73.62;92350.44;4946563;29;20525;-77
2022/09/09 09:11:53;;;;;;;4.10;2.03;;;;;;;20.20;74.14;92347.13;5004116;28;20049;-77
2022/09/09 09:14:24;;;;;;;4.53;2.40;;;;;;;20.26;77.05;92345.69;5012220;28;20037;-78
2022/09/09 09:17:03;;;;;;;5.03;1.90;;;;;;;20.09;74.31;92349.53;4998438;28;20042;-78
2022/09/09 09:19:30;;;;;;;3.67;1.75;;;;;;;20.15;73.08;92355.34;5005938;28;20034;-78
2022/09/09 09:22:20;;;;;;;2.55;1.60;;;;;;;20.10;74.68;92350.31;5006013;28;20103;-78
2022/09/09 09:24:55;;;;;;;5.88;2.03;;;;;;;19.59;74.35;92358.28;5016412;28;20029;-77
2022/09/09 09:27:43;;;;;;;7.68;1.92;;;;;;;19.61;76.09;92353.41;5006592;28;20047;-78
2022/09/09 09:30:22;;;;;;;4.95;2.00;;;;;;;19.94;72.06;92347.69;5011139;28;20117;-76
2022/09/09 09:33:05;;;;;;;3.95;2.00;;;;;;;20.06;72.97;92352.91;5025095;28;20408;-78
2022/09/09 09:35:31;;;;;;;4.63;1.73;;;;;;;20.05;68.27;92348.69;5006855;28;20034;-78
2022/09/09 09:38:00;;;;;;;4.20;2.00;;;;;;;20.15;69.84;92353.47;5008210;28;20033;-76
2022/09/09 09:40:27;;;;;;;4.30;1.75;;;;;;;19.95;69.14;92349.25;5014109;28;20156;-76
2022/09/09 09:42:56;;;;;;;7.10;2.15;;;;;;;19.98;69.88;92356.53;4990175;28;20116;-76
2022/09/09 09:45:41;;;;;;;4.88;1.92;;;;;;;20.37;70.35;92357.31;4994631;28;20030;-77
2022/09/09 09:48:10;;;;;;;2.67;1.60;;;;;;;20.21;70.14;92351.28;4991053;28;20113;-77
2022/09/09 09:50:47;;;;;;;5.15;1.90;;;;;;;20.52;70.93;92345.06;5008963;28;20079;-76
2022/09/09 09:53:21;;;;;;;5.50;1.98;;;;;;;20.43;69.20;92341.88;5016405;28;20513;-77
2022/09/09 09:55:56;;;;;;;3.38;1.70;;;;;;;20.43;65.03;92346.41;5028124;28;20037;-77
2022/09/09 09:58:23;;;;;;;3.10;1.60;;;;;;;20.68;64.96;92349.56;5011277;28;20415;-76
2022/09/09 10:00:51;;;;;;;4.38;1.80;;;;;;;20.49;63.26;92345.78;5012586;28;20061;-77
2022/09/09 10:03:31;;;;;;;4.32;1.83;;;;;;;20.82;66.02;92341.84;5028197;28;20411;-76
2022/09/09 10:05:58;;;;;;;6.93;1.58;;;;;;;21.01;65.45;92343.72;5024058;28;20045;-76
2022/09/09 10:08:26;;;;;;;4.10;1.80;;;;;;;20.88;65.37;92345.75;5027729;28;20495;-77
2022/09/09 10:11:02;;;;;;;6.18;1.63;;;;;;;20.85;66.20;92346.47;5008711;28;20046;-76
2022/09/09 10:13:39;;;;;;;3.42;1.70;;;;;;;20.76;64.20;92344.03;5002077;28;20034;-76
2022/09/09 10:16:20;;;;;;;2.88;1.60;;;;;;;20.74;66.64;92338.28;5024445;28;20037;-77
2022/09/09 10:18:52;;;;;;;5.63;2.00;;;;;;;21.05;68.00;92341.09;5022130;28;20041;-76
2022/09/09 10:21:30;;;;;;;3.78;1.83;;;;;;;21.28;66.45;92339.22;5003361;28;20117;-77
2022/09/09 10:24:02;;;;;;;5.15;1.92;;;;;;;21.04;64.77;92336.91;5013607;28;20184;-76
2022/09/09 10:26:47;;;;;;;4.75;1.90;;;;;;;21.21;67.96;92342.53;5009109;28;20046;-76
2022/09/09 10:29:28;;;;;;;4.13;1.80;;;;;;;21.33;66.25;92341.56;5007072;28;20388;-76
2022/09/09 10:32:31;;;;;;;5.45;2.10;;;;;;;21.19;66.70;92333.34;5023134;28;20100;-76
2022/09/09 10:35:02;;;;;;;5.32;1.73;;;;;;;21.28;67.07;92331.22;4989519;28;20121;-76
2022/09/09 10:37:52;;;;;;;4.05;1.90;;;;;;;21.00;68.54;92326.94;5008286;28;20107;-75
2022/09/09 10:40:38;;;;;;;3.17;1.80;;;;;;;21.14;68.55;92329.09;5007449;28;20125;-76
2022/09/09 10:43:42;;;;;;;4.30;1.98;;;;;;;21.42;67.57;92323.47;5005324;28;20022;-76
2022/09/09 10:46:13;;;;;;;6.70;2.08;;;;;;;21.44;68.30;92336.44;5007002;28;20034;-75
2022/09/09 10:49:10;;;;;;;4.88;2.30;;;;;;;21.35;69.31;92335.91;5023557;28;20040;-77
2022/09/09 10:51:51;;;;;;;5.78;2.55;;;;;;;21.41;69.19;92335.28;5008615;28;20038;-76
2022/09/09 10:54:43;;;;;;;7.28;2.28;;;;;;;21.57;69.66;92329.00;5023857;28;20108;-77
2022/09/09 10:57:25;;;;;;;9.18;2.20;;;;;;;21.54;68.41;92327.06;5028241;28;20034;-76
2022/09/09 10:59:56;;;;;;;;;;;;;;;21.07;69.73;92326.31;5014396;28;20042;-77
2022/09/09 11:02:28;;;;;;;5.25;2.15;;;;;;;21.05;69.74;92317.91;5012797;28;19913;-76
2022/09/09 11:05:00;;;;;;;9.50;1.77;;;;;;;21.09;70.87;92331.28;5009635;28;20565;-77
2022/09/09 11:07:57;;;;;;;4.93;2.40;;;;;;;21.06;71.46;92329.34;5028440;28;20044;-77
2022/09/09 11:11:01;;;;;;;4.28;2.00;;;;;;;21.24;69.46;92326.97;5016430;28;20045;-77
2022/09/09 11:13:51;;;;;;;4.35;2.40;;;;;;;21.17;68.89;92324.97;5049648;28;20120;-77
2022/09/09 11:16:46;;;;;;;3.78;2.10;;;;;;;21.24;70.44;92317.09;5031161;28;20044;-76
2022/09/09 11:19:38;;;;;;;6.55;2.20;;;;;;;21.35;69.61;92319.91;5032070;28;20029;-77
2022/09/09 11:22:28;;;;;;;4.13;2.17;;;;;;;21.40;70.46;92308.97;5021231;28;20084;-77
2022/09/09 11:25:22;;;;;;;4.57;2.40;;;;;;;21.24;69.17;92313.66;5031865;28;20379;-77
2022/09/09 11:28:14;;;;;;;4.95;2.30;;;;;;;21.49;69.16;92312.16;5033774;28;20044;-77
2022/09/09 11:30:46;;;;;;;;;;;;;;;21.50;67.97;92319.00;5033344;28;20033;-76
2022/09/09 11:33:27;;;;;;;7.03;2.40;;;;;;;21.46;68.03;92312.09;5034486;28;20012;-75
2022/09/09 11:36:19;;;;;;;6.20;2.60;;;;;;;21.52;68.93;92314.09;5022514;28;20048;-76
2022/09/09 11:38:47;;;;;;;4.30;2.50;;;;;;;21.56;70.65;92317.59;5033073;28;20383;-77
2022/09/09 11:41:15;;;;;;;4.00;2.25;;;;;;;21.30;72.26;92313.00;5014888;28;20029;-76
2022/09/09 11:43:46;;;;;;;5.07;2.42;;;;;;;20.98;73.12;92310.59;5034726;28;20399;-77
2022/09/09 11:46:15;;;;;;;7.50;2.77;;;;;;;20.71;71.53;92314.28;5033919;28;20131;-77
2022/09/09 11:48:45;;;;;;;7.05;2.60;;;;;;;20.35;73.91;92309.06;5034573;28;20029;-77
2022/09/09 11:51:32;;;;;;;7.25;2.78;;;;;;;20.16;75.21;92306.41;5031043;28;20394;-77
2022/09/09 11:54:22;;;;;;;5.88;2.50;;;;;;;20.19;75.07;92316.31;5033311;28;20411;-77
2022/09/09 11:56:48;;;;;;;6.32;3.03;;;;;;;20.78;70.88;92309.09;5027540;28;20568;-77
2022/09/09 11:59:29;;;;;;;6.90;2.95;;;;;;;20.95;73.32;92307.88;5033564;28;20711;-76